createdAt,value
2022-09-05T00:02:01.635Z,99.90
2022-09-05T00:04:35.235Z,99.90
2022-09-05T00:07:10.984Z,99.90
2022-09-05T00:10:05.857Z,99.90
2022-09-05T00:12:33.307Z,99.90
2022-09-05T00:15:38.745Z,99.90
2022-09-05T00:20:38.545Z,99.90
2022-09-05T00:24:24.984Z,99.90
2022-09-05T00:24:30.499Z,99.90
2022-09-05T00:27:24.163Z,99.90
2022-09-05T00:31:07.017Z,99.90
2022-09-05T00:33:16.974Z,99.90
2022-09-05T00:36:02.223Z,99.90
2022-09-05T00:38:36.876Z,99.90
2022-09-05T00:41:07.158Z,99.90
2022-09-05T00:43:41.968Z,99.90
2022-09-05T00:46:19.194Z,99.90
2022-09-05T00:48:46.576Z,99.90
2022-09-05T00:51:37.588Z,99.90
2022-09-05T00:54:34.230Z,99.90
2022-09-05T00:57:52.377Z,99.90
2022-09-05T01:00:34.419Z,99.90
2022-09-05T01:03:39.084Z,99.90
2022-09-05T01:06:26.496Z,99.90
2022-09-05T01:09:07.329Z,99.90
2022-09-05T01:11:38.758Z,99.90
2022-09-05T01:14:27.802Z,99.90
2022-09-05T01:17:19.544Z,99.90
2022-09-05T01:20:19.897Z,99.90
2022-09-05T01:23:03.689Z,99.90
2022-09-05T01:25:44.110Z,99.90
2022-09-05T01:29:18.776Z,99.90
2022-09-05T01:31:58.714Z,99.90
2022-09-05T01:34:56.111Z,99.90
2022-09-05T01:37:33.390Z,99.90
2022-09-05T01:40:30.344Z,99.90
2022-09-05T01:43:03.523Z,99.90
2022-09-05T01:45:55.705Z,99.90
2022-09-05T01:48:35.287Z,99.90
2022-09-05T01:51:29.367Z,99.90
2022-09-05T01:54:25.396Z,99.90
2022-09-05T01:57:21.826Z,99.90
2022-09-05T02:00:17.306Z,99.90
2022-09-05T02:03:04.296Z,99.90
2022-09-05T02:06:15.971Z,99.90
2022-09-05T02:09:01.259Z,99.90
2022-09-05T02:11:41.962Z,99.90
2022-09-05T02:14:34.336Z,99.90
2022-09-05T02:17:27.251Z,99.90
2022-09-05T02:20:23.810Z,99.90
2022-09-05T02:23:31.053Z,99.90
2022-09-05T02:26:03.604Z,99.90
2022-09-05T02:28:52.830Z,99.90
2022-09-05T02:31:46.364Z,99.90
2022-09-05T02:34:36.446Z,99.90
2022-09-05T02:38:01.889Z,99.90
2022-09-05T02:45:07.358Z,99.90
2022-09-05T02:45:07.732Z,99.90
2022-09-05T02:46:56.328Z,99.90
2022-09-05T02:50:46.769Z,99.90
2022-09-05T02:57:27.121Z,99.90
2022-09-05T02:57:39.664Z,99.90
2022-09-05T02:59:09.552Z,99.90
2022-09-05T03:01:54.690Z,99.90
2022-09-05T03:05:04.647Z,99.90
2022-09-05T03:07:32.580Z,99.90
2022-09-05T03:10:28.328Z,99.90
2022-09-05T03:13:23.918Z,99.90
2022-09-05T03:16:16.592Z,99.90
2022-09-05T03:19:11.907Z,99.90
2022-09-05T03:22:10.978Z,99.90
2022-09-05T03:24:57.549Z,99.90
2022-09-05T03:27:37.855Z,99.90
2022-09-05T03:30:24.969Z,99.90
2022-09-05T03:33:20.377Z,99.90
2022-09-05T03:36:28.725Z,99.90
2022-09-05T03:39:22.534Z,99.90
2022-09-05T03:42:00.480Z,99.90
2022-09-05T03:44:59.680Z,99.90
2022-09-05T03:47:42.176Z,99.90
2022-09-05T03:56:51.558Z,99.90
2022-09-05T03:57:12.479Z,99.90
2022-09-05T03:57:21.027Z,99.90
2022-09-05T03:59:57.257Z,99.90
2022-09-05T04:07:27.012Z,99.90
2022-09-05T04:08:26.110Z,99.90
2022-09-05T04:08:42.307Z,99.90
2022-09-05T04:11:19.548Z,99.90
2022-09-05T04:13:49.213Z,99.90
2022-09-05T04:16:24.895Z,99.90
2022-09-05T04:18:54.888Z,99.90
2022-09-05T04:21:29.487Z,99.90
2022-09-05T04:24:05.812Z,99.90
2022-09-05T04:26:56.701Z,99.90
2022-09-05T04:29:54.860Z,99.90
2022-09-05T04:32:26.356Z,99.90
2022-09-05T04:35:14.358Z,99.90
2022-09-05T04:37:47.827Z,99.90
2022-09-05T04:40:42.460Z,99.90
2022-09-05T04:43:25.474Z,99.90
2022-09-05T04:46:18.761Z,99.90
2022-09-05T04:49:01.643Z,99.90
2022-09-05T04:51:35.172Z,99.90
2022-09-05T04:54:15.110Z,99.90
2022-09-05T04:56:44.818Z,99.90
2022-09-05T05:05:56.731Z,99.90
2022-09-05T05:06:17.547Z,99.90
2022-09-05T05:06:23.834Z,99.90
2022-09-05T05:08:27.953Z,99.90
2022-09-05T05:15:00.083Z,99.90
2022-09-05T05:18:13.920Z,99.90
2022-09-05T05:18:14.074Z,99.90
2022-09-05T05:20:42.354Z,99.90
2022-09-05T05:23:16.248Z,99.90
2022-09-05T05:25:50.991Z,99.90
2022-09-05T05:28:38.554Z,99.90
2022-09-05T05:31:12.148Z,99.90
2022-09-05T05:33:39.517Z,99.90
2022-09-05T05:36:08.570Z,99.90
2022-09-05T05:38:39.141Z,99.90
2022-09-05T05:41:44.802Z,99.90
2022-09-05T05:44:16.123Z,99.90
2022-09-05T05:47:00.913Z,99.90
2022-09-05T05:49:45.176Z,99.90
2022-09-05T05:52:15.272Z,99.90
2022-09-05T05:55:24.730Z,99.90
2022-09-05T05:58:12.249Z,99.90
2022-09-05T06:00:54.571Z,99.90
2022-09-05T06:03:37.792Z,99.90
2022-09-05T06:06:29.729Z,99.90
2022-09-05T06:14:50.712Z,99.90
2022-09-05T06:15:02.058Z,99.90
2022-09-05T06:15:57.449Z,99.90
2022-09-05T06:18:51.961Z,99.90
2022-09-05T06:22:08.552Z,99.90
2022-09-05T06:25:16.739Z,99.90
2022-09-05T06:28:19.266Z,99.90
2022-09-05T06:31:24.600Z,99.90
2022-09-05T06:34:32.654Z,99.90
2022-09-05T06:37:04.672Z,99.90
2022-09-05T06:39:50.982Z,99.90
2022-09-05T06:42:43.538Z,99.90
2022-09-05T06:45:31.639Z,99.90
2022-09-05T06:48:45.708Z,99.90
2022-09-05T06:51:32.454Z,99.90
2022-09-05T06:54:05.685Z,99.90
2022-09-05T06:56:33.216Z,99.90
2022-09-05T06:59:09.850Z,99.90
2022-09-05T07:02:01.324Z,99.90
2022-09-05T07:05:24.540Z,99.90
2022-09-05T07:07:46.672Z,99.90
2022-09-05T07:10:37.521Z,99.90
2022-09-05T07:13:15.202Z,99.90
2022-09-05T07:16:10.785Z,99.90
2022-09-05T07:18:54.517Z,99.90
2022-09-05T07:21:28.201Z,99.90
2022-09-05T07:24:11.064Z,99.90
2022-09-05T07:26:51.699Z,99.90
2022-09-05T07:29:33.219Z,99.90
2022-09-05T07:32:02.082Z,99.90
2022-09-05T07:34:33.757Z,99.90
2022-09-05T07:37:16.288Z,99.90
2022-09-05T07:39:51.316Z,99.90
2022-09-05T07:42:24.912Z,99.90
2022-09-05T07:44:56.565Z,99.80
2022-09-05T07:47:35.164Z,99.40
2022-09-05T07:52:19.100Z,99.40
2022-09-05T07:56:52.222Z,99.20
2022-09-05T07:57:01.850Z,98.70
2022-09-05T07:58:44.041Z,98.60
2022-09-05T08:01:12.713Z,98.40
2022-09-05T08:03:41.869Z,98.70
2022-09-05T08:06:14.033Z,98.20
2022-09-05T08:09:43.939Z,97.70
2022-09-05T08:11:54.288Z,97.30
2022-09-05T08:14:44.749Z,97.00
2022-09-05T08:17:16.236Z,96.60
2022-09-05T08:20:08.345Z,96.70
2022-09-05T08:23:11.306Z,96.60
2022-09-05T08:25:57.460Z,96.70
2022-09-05T08:28:46.180Z,96.70
2022-09-05T08:31:16.785Z,97.20
2022-09-05T08:33:44.196Z,97.60
2022-09-05T08:36:28.304Z,97.40
2022-09-05T08:38:57.755Z,96.60
2022-09-05T08:41:50.175Z,96.60
2022-09-05T08:46:41.510Z,96.60
2022-09-05T08:47:57.692Z,96.90
2022-09-05T08:50:50.019Z,96.50
2022-09-05T08:53:48.728Z,96.70
2022-09-05T08:56:35.080Z,96.80
2022-09-05T08:59:28.392Z,96.70
2022-09-05T09:02:14.442Z,96.60
2022-09-05T09:06:12.230Z,96.00
2022-09-05T09:08:27.320Z,95.90
2022-09-05T09:11:03.693Z,95.60
2022-09-05T09:13:42.142Z,95.50
2022-09-05T09:16:20.547Z,95.50
2022-09-05T09:18:47.987Z,94.80
2022-09-05T09:21:24.906Z,95.00
2022-09-05T09:24:02.914Z,94.70
2022-09-05T09:26:42.612Z,94.60
2022-09-05T09:29:12.383Z,94.60
2022-09-05T09:31:52.973Z,94.20
2022-09-05T09:34:26.586Z,94.00
2022-09-05T09:37:15.959Z,93.90
2022-09-05T09:40:05.224Z,93.60
2022-09-05T09:42:41.717Z,93.30
2022-09-05T09:45:29.512Z,92.50
2022-09-05T09:48:18.825Z,92.50
2022-09-05T09:50:59.018Z,93.00
2022-09-05T09:53:46.449Z,92.80
2022-09-05T09:56:47.959Z,92.00
2022-09-05T09:59:53.903Z,90.10
2022-09-05T10:05:05.600Z,88.70
2022-09-05T10:10:23.347Z,89.30
2022-09-05T10:10:46.918Z,89.00
2022-09-05T10:11:54.924Z,87.80
2022-09-05T10:14:49.959Z,88.10
2022-09-05T10:17:26.021Z,88.70
2022-09-05T10:20:15.652Z,88.10
2022-09-05T10:22:48.881Z,88.90
2022-09-05T10:25:46.487Z,86.70
2022-09-05T10:28:40.140Z,86.20
2022-09-05T10:34:26.846Z,88.10
2022-09-05T10:35:15.101Z,89.20
2022-09-05T10:37:16.709Z,88.60
2022-09-05T10:39:47.252Z,88.70
2022-09-05T10:42:22.041Z,88.60
2022-09-05T10:44:56.353Z,87.60
2022-09-05T10:47:32.997Z,86.50
2022-09-05T10:50:25.993Z,86.90
2022-09-05T10:52:59.385Z,87.40
2022-09-05T10:55:36.048Z,85.60
2022-09-05T10:59:37.413Z,85.90
2022-09-05T11:02:26.442Z,85.00
2022-09-05T11:04:46.427Z,86.50
2022-09-05T11:07:29.255Z,86.10
2022-09-05T11:10:04.886Z,83.90
2022-09-05T11:13:04.442Z,83.60
2022-09-05T11:16:04.283Z,83.40
2022-09-05T11:18:55.613Z,82.40
2022-09-05T11:21:31.640Z,82.00
2022-09-05T11:24:16.129Z,81.50
2022-09-05T11:27:23.190Z,81.00
2022-09-05T11:29:47.051Z,79.60
2022-09-05T11:39:35.089Z,79.10
2022-09-05T11:39:59.919Z,80.50
2022-09-05T11:40:25.015Z,82.50
2022-09-05T11:41:46.156Z,83.30
2022-09-05T11:44:33.769Z,82.50
2022-09-05T11:47:28.111Z,82.60
2022-09-05T11:50:09.010Z,83.50
2022-09-05T11:53:13.094Z,82.20
2022-09-05T11:56:03.623Z,81.80
2022-09-05T11:59:04.872Z,80.50
2022-09-05T12:01:44.098Z,81.60
2022-09-05T12:04:33.507Z,78.90
2022-09-05T12:07:24.088Z,78.40
2022-09-05T12:10:47.744Z,78.60
2022-09-05T12:13:14.118Z,77.70
2022-09-05T12:16:00.635Z,78.60
2022-09-05T12:19:14.223Z,77.40
2022-09-05T12:22:18.513Z,77.40
2022-09-05T12:29:26.866Z,74.40
2022-09-05T12:33:11.463Z,75.20
2022-09-05T12:36:04.363Z,75.10
2022-09-05T12:40:21.310Z,76.60
2022-09-05T12:41:37.660Z,75.50
2022-09-05T12:41:41.567Z,75.60
2022-09-05T12:42:40.587Z,75.70
2022-09-05T12:45:42.254Z,73.10
2022-09-05T12:48:38.568Z,73.80
2022-09-05T12:51:07.632Z,73.10
2022-09-05T12:53:48.539Z,73.50
2022-09-05T13:01:03.618Z,74.00
2022-09-05T13:03:08.337Z,74.80
2022-09-05T13:03:11.102Z,75.30
2022-09-05T13:05:18.364Z,74.90
2022-09-05T13:07:48.884Z,76.00
2022-09-05T13:12:26.178Z,72.80
2022-09-05T13:14:52.984Z,72.50
2022-09-05T13:16:24.894Z,74.10
2022-09-05T13:19:02.208Z,74.00
2022-09-05T13:21:30.068Z,75.10
2022-09-05T13:24:06.777Z,75.80
2022-09-05T13:27:13.818Z,75.40
2022-09-05T13:31:39.312Z,73.20
2022-09-05T13:38:00.836Z,70.90
2022-09-05T13:38:11.131Z,72.50
2022-09-05T13:39:01.175Z,71.10
2022-09-05T13:41:34.878Z,71.40
2022-09-05T13:44:25.313Z,70.70
2022-09-05T13:46:59.142Z,71.60
2022-09-05T13:49:37.110Z,71.90
2022-09-05T13:52:34.526Z,70.20
2022-09-05T13:55:12.962Z,70.60
2022-09-05T13:57:46.455Z,69.40
2022-09-05T14:00:28.270Z,68.00
2022-09-05T14:03:38.731Z,66.90
2022-09-05T14:06:46.970Z,65.00
2022-09-05T14:09:38.514Z,64.90
2022-09-05T14:12:12.509Z,65.30
2022-09-05T14:15:09.198Z,66.00
2022-09-05T14:17:57.848Z,66.30
2022-09-05T14:20:50.248Z,64.50
2022-09-05T14:23:18.820Z,66.50
2022-09-05T14:25:55.283Z,63.80
2022-09-05T14:28:46.958Z,63.10
2022-09-05T14:34:56.993Z,63.60
2022-09-05T14:37:53.759Z,65.00
2022-09-05T14:37:54.946Z,62.80
2022-09-05T14:40:30.015Z,64.60
2022-09-05T14:43:30.781Z,65.50
2022-09-05T14:46:00.585Z,64.00
2022-09-05T14:49:05.597Z,63.40
2022-09-05T14:51:39.229Z,61.10
2022-09-05T15:02:43.047Z,61.00
2022-09-05T15:02:50.349Z,61.00
2022-09-05T15:03:04.223Z,60.90
2022-09-05T15:05:40.868Z,61.00
2022-09-05T15:08:16.283Z,60.30
2022-09-05T15:12:23.171Z,59.80
2022-09-05T15:14:03.827Z,59.00
2022-09-05T15:16:32.845Z,59.60
2022-09-05T15:19:00.589Z,59.90
2022-09-05T15:21:41.408Z,60.50
2022-09-05T15:24:23.833Z,60.60
2022-09-05T15:26:59.386Z,60.70
2022-09-05T15:29:28.162Z,61.00
2022-09-05T15:32:21.417Z,60.80
2022-09-05T15:34:52.785Z,60.50
2022-09-05T15:37:29.240Z,60.70
2022-09-05T15:40:02.847Z,61.00
2022-09-05T15:42:32.595Z,61.20
2022-09-05T15:45:10.128Z,63.10
2022-09-05T15:47:39.691Z,64.20
2022-09-05T15:50:22.593Z,64.30
2022-09-05T15:52:52.587Z,65.00
2022-09-05T15:55:24.586Z,63.20
2022-09-05T15:58:02.080Z,63.50
2022-09-05T16:00:39.940Z,63.60
2022-09-05T16:07:05.590Z,63.20
2022-09-05T16:10:29.369Z,63.20
2022-09-05T16:10:40.245Z,62.90
2022-09-05T16:12:16.480Z,62.90
2022-09-05T16:15:40.772Z,63.70
2022-09-05T16:23:18.520Z,65.50
2022-09-05T16:23:34.734Z,64.50
2022-09-05T16:23:41.462Z,64.30
2022-09-05T16:26:25.850Z,63.80
2022-09-05T16:29:26.776Z,64.50
2022-09-05T16:32:02.324Z,65.20
2022-09-05T16:34:52.570Z,65.50
2022-09-05T16:37:53.025Z,65.70
2022-09-05T16:40:39.287Z,67.40
2022-09-05T16:43:06.616Z,67.90
2022-09-05T16:45:56.938Z,68.40
2022-09-05T16:48:42.512Z,69.00
2022-09-05T16:51:17.994Z,69.30
2022-09-05T16:54:26.027Z,70.10
2022-09-05T16:57:00.790Z,69.60
2022-09-05T16:59:35.615Z,69.80
2022-09-05T17:02:29.455Z,70.60
2022-09-05T17:05:04.593Z,70.30
2022-09-05T17:07:35.315Z,71.10
2022-09-05T17:10:20.034Z,71.80
2022-09-05T17:12:56.447Z,72.20
2022-09-05T17:15:27.610Z,72.50
2022-09-05T17:18:20.141Z,72.90
2022-09-05T17:20:54.135Z,73.50
2022-09-05T17:29:19.791Z,74.00
2022-09-05T17:29:26.025Z,74.20
2022-09-05T17:32:47.250Z,74.80
2022-09-05T17:35:22.182Z,75.40
2022-09-05T17:38:14.458Z,75.70
2022-09-05T17:40:59.793Z,76.10
2022-09-05T17:43:38.979Z,76.90
2022-09-05T17:46:29.742Z,77.90
2022-09-05T17:49:20.048Z,78.80
2022-09-05T17:51:52.922Z,79.90
2022-09-05T17:54:30.719Z,80.10
2022-09-05T17:57:18.004Z,80.70
2022-09-05T17:59:45.405Z,81.20
2022-09-05T18:02:19.026Z,82.00
2022-09-05T18:04:47.923Z,82.80
2022-09-05T18:07:30.302Z,83.30
2022-09-05T18:10:14.896Z,83.70
2022-09-05T18:15:32.485Z,84.70
2022-09-05T18:18:02.031Z,85.20
2022-09-05T18:20:40.768Z,85.60
2022-09-05T18:23:37.425Z,86.10
2022-09-05T18:26:16.026Z,86.60
2022-09-05T18:28:59.139Z,87.10
2022-09-05T18:31:41.914Z,87.50
2022-09-05T18:34:15.698Z,88.00
2022-09-05T18:36:50.335Z,88.60
2022-09-05T18:39:24.691Z,89.10
2022-09-05T18:41:56.213Z,89.40
2022-09-05T18:44:58.913Z,89.80
2022-09-05T18:47:57.293Z,90.00
2022-09-05T18:50:32.432Z,90.10
2022-09-05T18:53:09.508Z,90.40
2022-09-05T18:56:14.249Z,90.70
2022-09-05T18:58:52.450Z,90.90
2022-09-05T19:01:48.022Z,91.20
2022-09-05T19:04:39.613Z,91.40
2022-09-05T19:07:10.824Z,91.60
2022-09-05T19:09:55.644Z,91.90
2022-09-05T19:12:33.438Z,92.10
2022-09-05T19:15:08.515Z,92.30
2022-09-05T19:17:37.099Z,92.60
2022-09-05T19:20:30.422Z,92.90
2022-09-05T19:23:10.314Z,93.20
2022-09-05T19:25:44.500Z,93.60
2022-09-05T19:35:51.431Z,93.90
2022-09-05T19:36:57.976Z,94.20
2022-09-05T19:37:09.433Z,94.50
2022-09-05T19:37:30.415Z,94.70
2022-09-05T19:46:05.498Z,95.20
2022-09-05T19:47:39.307Z,95.10
2022-09-05T19:47:48.497Z,95.30
2022-09-05T19:48:29.212Z,95.60
2022-09-05T19:51:17.421Z,95.90
2022-09-05T19:54:04.889Z,96.10
2022-09-05T19:56:42.442Z,96.60
2022-09-05T19:59:22.409Z,97.00
2022-09-05T20:01:51.770Z,97.00
2022-09-05T20:04:20.065Z,97.00
2022-09-05T20:06:50.901Z,97.10
2022-09-05T20:09:22.153Z,97.00
2022-09-05T20:11:51.580Z,97.00
2022-09-05T20:14:34.507Z,97.10
2022-09-05T20:17:32.199Z,97.20
2022-09-05T20:20:14.232Z,97.40
2022-09-05T20:22:48.934Z,97.70
2022-09-05T20:25:43.419Z,97.80
2022-09-05T20:28:22.903Z,98.20
2022-09-05T20:30:55.178Z,98.30
2022-09-05T20:33:51.738Z,98.60
2022-09-05T20:43:11.840Z,98.80
2022-09-05T20:43:16.583Z,98.90
2022-09-05T20:43:21.189Z,99.10
2022-09-05T20:45:46.279Z,99.40
2022-09-05T20:54:15.079Z,99.80
2022-09-05T20:54:25.673Z,99.90
2022-09-05T20:54:31.956Z,99.90
2022-09-05T20:56:56.663Z,99.90
2022-09-05T20:59:33.879Z,99.90
2022-09-05T21:02:20.447Z,99.90
2022-09-05T21:05:06.853Z,99.90
2022-09-05T21:08:06.788Z,99.90
2022-09-05T21:10:45.127Z,99.90
2022-09-05T21:13:28.365Z,99.90
2022-09-05T21:15:56.226Z,99.90
2022-09-05T21:18:33.249Z,99.90
2022-09-05T21:21:27.960Z,99.90
2022-09-05T21:24:18.912Z,99.90
2022-09-05T21:26:47.942Z,99.90
2022-09-05T21:29:17.452Z,99.90
2022-09-05T21:31:57.473Z,99.90
2022-09-05T21:34:32.778Z,99.90
2022-09-05T21:37:07.143Z,99.90
2022-09-05T21:39:39.963Z,99.90
2022-09-05T21:42:38.845Z,99.90
2022-09-05T21:47:47.093Z,99.90
2022-09-05T21:47:53.812Z,99.90
2022-09-05T21:50:30.715Z,99.90
2022-09-05T21:53:46.947Z,99.90
2022-09-05T21:59:19.388Z,99.90
2022-09-05T21:59:32.964Z,99.90
2022-09-05T22:01:51.369Z,99.90
2022-09-05T22:04:17.542Z,99.90
2022-09-05T22:06:48.583Z,99.90
2022-09-05T22:09:20.300Z,99.90
2022-09-05T22:11:51.514Z,99.90
2022-09-05T22:14:19.746Z,99.90
2022-09-05T22:16:50.460Z,99.90
2022-09-05T22:19:23.071Z,99.90
2022-09-05T22:21:52.045Z,99.90
2022-09-05T22:24:19.458Z,99.90
2022-09-05T22:27:10.934Z,99.90
2022-09-05T22:29:39.822Z,99.90
2022-09-05T22:32:07.535Z,99.90
2022-09-05T22:34:35.105Z,99.90
2022-09-05T22:37:02.499Z,99.90
2022-09-05T22:39:37.707Z,99.90
2022-09-05T22:42:10.845Z,99.90
2022-09-05T22:44:39.310Z,99.90
2022-09-05T22:47:10.215Z,99.90
2022-09-05T22:49:37.780Z,99.90
2022-09-05T22:52:08.830Z,99.90
2022-09-05T22:54:36.416Z,99.90
2022-09-05T22:57:04.366Z,99.90
2022-09-05T22:59:31.909Z,99.90
2022-09-05T23:01:59.331Z,99.90
2022-09-05T23:04:26.893Z,99.90
2022-09-05T23:06:54.415Z,99.90
2022-09-05T23:09:21.910Z,99.90
2022-09-05T23:11:49.284Z,99.90
2022-09-05T23:14:16.682Z,99.90
2022-09-05T23:16:44.132Z,99.90
2022-09-05T23:19:11.546Z,99.90
2022-09-05T23:21:38.921Z,99.90
2022-09-05T23:24:06.340Z,99.90
2022-09-05T23:26:33.690Z,99.90
2022-09-05T23:29:01.068Z,99.90
2022-09-05T23:31:28.807Z,99.90
2022-09-05T23:33:58.162Z,99.90
2022-09-05T23:36:25.623Z,99.90
2022-09-05T23:38:53.081Z,99.90
2022-09-05T23:41:20.452Z,99.90
2022-09-05T23:43:47.813Z,99.90
2022-09-05T23:46:15.310Z,99.90
2022-09-05T23:48:42.751Z,99.90
2022-09-05T23:51:11.328Z,99.90
2022-09-05T23:53:38.786Z,99.90
2022-09-05T23:56:07.157Z,99.90
2022-09-05T23:58:35.159Z,99.90
